Private Wetterstation Sandau
Wetterdaten: Montag, 23.07.2012
Datum Zeit Temp. A. Feuchte A. Luftdruck Regen Wind Richtung Richtung Taupunkt Windchill
23.07.2012 00:01 12,9 C 77 % 1029,7 hPa 0,0 l/m 0,0 km/h (0 Bft) SW 225 9,0 C 12,9 C
23.07.2012 00:06 12,9 C 78 % 1029,7 hPa 0,0 l/m 0,0 km/h (0 Bft) SW 225 9,2 C 12,9 C
23.07.2012 00:11 12,8 C 79 % 1029,7 hPa 0,0 l/m 0,0 km/h (0 Bft) SW 225 9,2 C 12,8 C
23.07.2012 00:16 12,8 C 79 % 1029,6 hPa 0,0 l/m 0,0 km/h (0 Bft) SW 225 9,2 C 12,8 C
23.07.2012 00:21 12,8 C 79 % 1029,6 hPa 0,0 l/m 0,0 km/h (0 Bft) SW 225 9,2 C 12,8 C
23.07.2012 00:26 12,6 C 79 % 1029,7 hPa 0,0 l/m 0,0 km/h (0 Bft) SW 225 9,1 C 12,6 C
23.07.2012 00:31 12,6 C 80 % 1029,7 hPa 0,0 l/m 0,0 km/h (0 Bft) SW 225 9,2 C 12,6 C
23.07.2012 00:36 12,5 C 81 % 1029,7 hPa 0,0 l/m 0,0 km/h (0 Bft) SW 225 9,3 C 12,5 C
23.07.2012 00:41 12,4 C 81 % 1029,7 hPa 0,0 l/m 0,0 km/h (0 Bft) SW 225 9,2 C 12,4 C
23.07.2012 00:46 12,6 C 81 % 1029,7 hPa 0,0 l/m 0,0 km/h (0 Bft) SW 225 9,4 C 12,6 C
23.07.2012 00:51 12,6 C 81 % 1029,7 hPa 0,0 l/m 1,1 km/h (1 Bft) SW 225 9,4 C 12,6 C
23.07.2012 00:56 12,4 C 81 % 1029,7 hPa 0,0 l/m 0,0 km/h (0 Bft) SW 225 9,2 C 12,4 C
23.07.2012 01:01 12,4 C 81 % 1029,7 hPa 0,0 l/m 0,0 km/h (0 Bft) SW 225 9,2 C 12,4 C
23.07.2012 01:06 12,3 C 81 % 1029,7 hPa 0,0 l/m 0,0 km/h (0 Bft) SW 225 9,1 C 12,3 C
23.07.2012 01:11 12,4 C 81 % 1029,7 hPa 0,0 l/m 0,0 km/h (0 Bft) SW 225 9,2 C 12,4 C
23.07.2012 01:16 12,4 C 82 % 1029,8 hPa 0,0 l/m 2,9 km/h (1 Bft) SW 225 9,4 C 12,4 C
23.07.2012 01:21 12,5 C 82 % 1029,7 hPa 0,0 l/m 0,0 km/h (0 Bft) S-SW 202 9,5 C 12,5 C
23.07.2012 01:26 12,4 C 81 % 1029,7 hPa 0,0 l/m 1,1 km/h (1 Bft) S-SW 202 9,2 C 12,4 C
23.07.2012 01:31 12,4 C 82 % 1029,7 hPa 0,0 l/m 0,0 km/h (0 Bft) S-SW 202 9,4 C 12,4 C
23.07.2012 01:36 12,3 C 82 % 1029,7 hPa 0,0 l/m 3,2 km/h (1 Bft) S 180 9,3 C 12,3 C
23.07.2012 01:41 12,3 C 82 % 1029,7 hPa 0,0 l/m 0,0 km/h (0 Bft) S 180 9,3 C 12,3 C
23.07.2012 01:46 12,3 C 82 % 1029,7 hPa 0,0 l/m 0,0 km/h (0 Bft) S-SO 157 9,3 C 12,3 C
23.07.2012 01:51 12,3 C 81 % 1029,7 hPa 0,0 l/m 0,0 km/h (0 Bft) S-SO 157 9,1 C 12,3 C
23.07.2012 01:56 12,1 C 81 % 1029,7 hPa 0,0 l/m 0,0 km/h (0 Bft) S-SO 157 8,9 C 12,1 C
23.07.2012 02:01 12,1 C 81 % 1029,7 hPa 0,0 l/m 1,4 km/h (1 Bft) S-SO 157 8,9 C 12,1 C
23.07.2012 02:06 12,1 C 82 % 1029,8 hPa 0,0 l/m 0,0 km/h (0 Bft) S-SO 157 9,1 C 12,1 C
23.07.2012 02:11 12,1 C 82 % 1029,8 hPa 0,0 l/m 0,0 km/h (0 Bft) S-SO 157 9,1 C 12,1 C
23.07.2012 02:16 12,1 C 82 % 1029,8 hPa 0,0 l/m 1,8 km/h (1 Bft) S-SO 157 9,1 C 12,1 C
23.07.2012 02:21 12,1 C 82 % 1029,9 hPa 0,0 l/m 2,2 km/h (1 Bft) S-SO 157 9,1 C 12,1 C
23.07.2012 02:26 12,2 C 82 % 1029,8 hPa 0,0 l/m 2,2 km/h (1 Bft) S-SO 157 9,2 C 12,2 C
23.07.2012 02:31 12,3 C 82 % 1029,8 hPa 0,0 l/m 0,0 km/h (0 Bft) S 180 9,3 C 12,3 C
23.07.2012 02:36 12,3 C 81 % 1030,0 hPa 0,0 l/m 0,0 km/h (0 Bft) S-SO 157 9,1 C 12,3 C
23.07.2012 02:41 12,3 C 81 % 1030,1 hPa 0,0 l/m 0,0 km/h (0 Bft) S-SO 157 9,1 C 12,3 C
23.07.2012 02:46 12,3 C 81 % 1030,0 hPa 0,0 l/m 0,0 km/h (0 Bft) S-SO 157 9,1 C 12,3 C
23.07.2012 02:51 12,4 C 81 % 1029,9 hPa 0,0 l/m 0,0 km/h (0 Bft) S-SO 157 9,2 C 12,4 C
23.07.2012 02:56 12,5 C 81 % 1030,1 hPa 0,0 l/m 0,0 km/h (0 Bft) S-SO 157 9,3 C 12,5 C
23.07.2012 03:01 12,5 C 81 % 1030,0 hPa 0,0 l/m 1,1 km/h (1 Bft) S-SO 157 9,3 C 12,5 C
23.07.2012 03:06 12,6 C 81 % 1029,8 hPa 0,0 l/m 0,0 km/h (0 Bft) S-SO 157 9,4 C 12,6 C
23.07.2012 03:11 12,7 C 81 % 1030,0 hPa 0,0 l/m 1,1 km/h (1 Bft) S-SO 157 9,5 C 12,7 C
23.07.2012 03:16 12,8 C 81 % 1029,9 hPa 0,0 l/m 0,0 km/h (0 Bft) S-SO 157 9,6 C 12,8 C
23.07.2012 03:21 12,8 C 81 % 1029,7 hPa 0,0 l/m 0,0 km/h (0 Bft) S-SO 157 9,6 C 12,8 C
23.07.2012 03:26 12,8 C 81 % 1029,7 hPa 0,0 l/m 2,5 km/h (1 Bft) S-SO 157 9,6 C 12,8 C
23.07.2012 03:31 12,8 C 81 % 1029,6 hPa 0,0 l/m 2,5 km/h (1 Bft) SO 135 9,6 C 12,8 C
23.07.2012 03:36 12,9 C 80 % 1029,5 hPa 0,0 l/m 1,8 km/h (1 Bft) S-SO 157 9,5 C 12,9 C
23.07.2012 03:41 12,8 C 80 % 1029,6 hPa 0,0 l/m 0,0 km/h (0 Bft) S-SO 157 9,4 C 12,8 C
23.07.2012 03:46 12,7 C 80 % 1029,5 hPa 0,0 l/m 4,0 km/h (1 Bft) S-SO 157 9,3 C 12,7 C
23.07.2012 03:51 12,6 C 80 % 1029,5 hPa 0,0 l/m 2,2 km/h (1 Bft) S 180 9,2 C 12,6 C
23.07.2012 03:56 12,5 C 80 % 1029,5 hPa 0,0 l/m 0,0 km/h (0 Bft) S-SO 157 9,1 C 12,5 C
23.07.2012 04:01 12,5 C 81 % 1029,6 hPa 0,0 l/m 2,2 km/h (1 Bft) S-SO 157 9,3 C 12,5 C
23.07.2012 04:06 12,5 C 81 % 1029,6 hPa 0,0 l/m 4,0 km/h (1 Bft) S-SO 157 9,3 C 12,5 C
23.07.2012 04:11 12,5 C 81 % 1029,6 hPa 0,0 l/m 2,9 km/h (1 Bft) S-SO 157 9,3 C 12,5 C
23.07.2012 04:16 12,4 C 81 % 1029,6 hPa 0,0 l/m 0,0 km/h (0 Bft) S-SO 157 9,2 C 12,4 C
23.07.2012 04:21 12,4 C 81 % 1029,7 hPa 0,0 l/m 1,4 km/h (1 Bft) S-SO 157 9,2 C 12,4 C
23.07.2012 04:26 12,4 C 81 % 1029,6 hPa 0,0 l/m 0,0 km/h (0 Bft) S-SO 157 9,2 C 12,4 C
23.07.2012 04:31 12,3 C 81 % 1029,7 hPa 0,0 l/m 0,0 km/h (0 Bft) S-SO 157 9,1 C 12,3 C
23.07.2012 04:36 12,3 C 82 % 1029,6 hPa 0,0 l/m 0,0 km/h (0 Bft) S-SO 157 9,3 C 12,3 C
23.07.2012 04:41 12,1 C 82 % 1029,8 hPa 0,0 l/m 0,0 km/h (0 Bft) S-SO 157 9,1 C 12,1 C
23.07.2012 04:46 11,9 C 82 % 1029,7 hPa 0,0 l/m 1,1 km/h (1 Bft) S-SO 157 8,9 C 11,9 C
23.07.2012 04:51 11,8 C 82 % 1029,7 hPa 0,0 l/m 0,0 km/h (0 Bft) SO 135 8,8 C 11,8 C
23.07.2012 04:56 11,8 C 82 % 1029,7 hPa 0,0 l/m 0,0 km/h (0 Bft) S-SO 157 8,8 C 11,8 C
23.07.2012 05:01 11,6 C 82 % 1029,6 hPa 0,0 l/m 2,2 km/h (1 Bft) S-SO 157 8,6 C 11,6 C
23.07.2012 05:06 11,6 C 83 % 1029,7 hPa 0,0 l/m 3,2 km/h (1 Bft) S 180 8,8 C 11,6 C
23.07.2012 05:11 11,5 C 83 % 1029,6 hPa 0,0 l/m 1,4 km/h (1 Bft) S-SO 157 8,7 C 11,5 C
23.07.2012 05:16 11,4 C 83 % 1029,6 hPa 0,0 l/m 2,5 km/h (1 Bft) S 180 8,6 C 11,4 C
23.07.2012 05:21 11,3 C 83 % 1029,7 hPa 0,0 l/m 2,5 km/h (1 Bft) S 180 8,5 C 11,3 C
23.07.2012 05:26 11,2 C 83 % 1029,6 hPa 0,0 l/m 6,5 km/h (2 Bft) S-SO 157 8,4 C 11,2 C
23.07.2012 05:31 11,3 C 83 % 1029,6 hPa 0,0 l/m 3,6 km/h (1 Bft) S-SO 157 8,5 C 11,3 C
23.07.2012 05:36 11,4 C 83 % 1029,6 hPa 0,0 l/m 0,0 km/h (0 Bft) S-SO 157 8,6 C 11,4 C
23.07.2012 05:41 11,4 C 83 % 1029,5 hPa 0,0 l/m 5,8 km/h (2 Bft) S-SO 157 8,6 C 11,4 C
23.07.2012 05:46 11,4 C 83 % 1029,7 hPa 0,0 l/m 5,0 km/h (1 Bft) SO 135 8,6 C 11,4 C
23.07.2012 05:51 11,8 C 83 % 1029,7 hPa 0,0 l/m 2,9 km/h (1 Bft) S-SO 157 9,0 C 11,8 C
23.07.2012 05:56 11,8 C 83 % 1029,6 hPa 0,0 l/m 2,9 km/h (1 Bft) S-SW 202 9,0 C 11,8 C
23.07.2012 06:01 11,8 C 83 % 1029,7 hPa 0,0 l/m 3,6 km/h (1 Bft) S-SO 157 9,0 C 11,8 C
23.07.2012 06:06 11,9 C 83 % 1029,7 hPa 0,0 l/m 4,7 km/h (1 Bft) S-SO 157 9,1 C 11,9 C
23.07.2012 06:11 11,9 C 83 % 1029,7 hPa 0,0 l/m 6,1 km/h (2 Bft) S 180 9,1 C 11,9 C
23.07.2012 06:16 12,1 C 82 % 1029,7 hPa 0,0 l/m 4,3 km/h (1 Bft) SO 135 9,1 C 12,1 C
23.07.2012 06:21 12,2 C 82 % 1029,7 hPa 0,0 l/m 4,0 km/h (1 Bft) S 180 9,2 C 12,2 C
23.07.2012 06:26 12,3 C 82 % 1029,7 hPa 0,0 l/m 4,3 km/h (1 Bft) S 180 9,3 C 12,3 C
23.07.2012 06:31 12,5 C 82 % 1029,8 hPa 0,0 l/m 6,8 km/h (2 Bft) S 180 9,5 C 12,5 C
23.07.2012 06:36 12,6 C 82 % 1029,8 hPa 0,0 l/m 0,0 km/h (0 Bft) SO 135 9,6 C 12,6 C
23.07.2012 06:41 12,8 C 81 % 1029,8 hPa 0,0 l/m 5,8 km/h (2 Bft) S-SO 157 9,6 C 12,8 C
23.07.2012 06:46 12,9 C 81 % 1029,8 hPa 0,0 l/m 4,0 km/h (1 Bft) S 180 9,7 C 12,9 C
23.07.2012 06:51 13,1 C 81 % 1029,8 hPa 0,0 l/m 8,3 km/h (2 Bft) S-SO 157 9,9 C 13,1 C
23.07.2012 06:56 13,3 C 81 % 1030,0 hPa 0,0 l/m 4,7 km/h (1 Bft) S 180 10,1 C 13,3 C
23.07.2012 07:01 13,6 C 80 % 1029,8 hPa 0,0 l/m 3,2 km/h (1 Bft) S-SO 157 10,2 C 13,6 C
23.07.2012 07:06 13,6 C 79 % 1029,9 hPa 0,0 l/m 0,0 km/h (0 Bft) S-SO 157 10,0 C 13,6 C
23.07.2012 07:11 13,8 C 79 % 1029,9 hPa 0,0 l/m 5,0 km/h (1 Bft) S-SO 157 10,2 C 13,8 C
23.07.2012 07:16 13,8 C 78 % 1030,0 hPa 0,0 l/m 2,5 km/h (1 Bft) S-SO 157 10,0 C 13,8 C
23.07.2012 07:21 13,9 C 78 % 1030,0 hPa 0,0 l/m 5,0 km/h (1 Bft) S-SO 157 10,1 C 13,9 C
23.07.2012 07:26 14,1 C 77 % 1030,0 hPa 0,0 l/m 1,4 km/h (1 Bft) S-SO 157 10,1 C 14,1 C
23.07.2012 07:31 14,4 C 77 % 1030,0 hPa 0,0 l/m 4,0 km/h (1 Bft) SO 135 10,4 C 14,4 C
23.07.2012 07:36 14,9 C 77 % 1030,0 hPa 0,0 l/m 3,6 km/h (1 Bft) SO 135 10,9 C 14,9 C
23.07.2012 07:41 16,3 C 76 % 1030,2 hPa 0,0 l/m 0,0 km/h (0 Bft) S-SO 157 12,1 C 16,3 C
23.07.2012 07:46 16,4 C 73 % 1030,1 hPa 0,0 l/m 1,4 km/h (1 Bft) S 180 11,5 C 16,4 C
23.07.2012 07:51 16,2 C 73 % 1030,2 hPa 0,0 l/m 0,0 km/h (0 Bft) S-SO 157 11,4 C 16,2 C
23.07.2012 07:56 16,2 C 73 % 1030,2 hPa 0,0 l/m 0,0 km/h (0 Bft) S 180 11,4 C 16,2 C
23.07.2012 08:01 16,4 C 73 % 1030,3 hPa 0,0 l/m 2,2 km/h (1 Bft) S-SO 157 11,5 C 16,4 C
23.07.2012 08:06 16,5 C 73 % 1030,2 hPa 0,0 l/m 5,0 km/h (1 Bft) S-SW 202 11,6 C 16,5 C
23.07.2012 08:11 16,5 C 73 % 1030,2 hPa 0,0 l/m 4,3 km/h (1 Bft) S-SW 202 11,6 C 16,5 C
23.07.2012 08:16 16,6 C 73 % 1030,4 hPa 0,0 l/m 3,2 km/h (1 Bft) S-SO 157 11,7 C 16,6 C
23.07.2012 08:21 16,7 C 72 % 1030,3 hPa 0,0 l/m 2,9 km/h (1 Bft) S 180 11,6 C 16,7 C
23.07.2012 08:26 16,8 C 72 % 1030,3 hPa 0,0 l/m 2,5 km/h (1 Bft) S-SW 202 11,7 C 16,8 C
23.07.2012 08:31 16,8 C 72 % 1030,4 hPa 0,0 l/m 1,8 km/h (1 Bft) S-SW 202 11,7 C 16,8 C
23.07.2012 08:36 16,9 C 72 % 1030,2 hPa 0,0 l/m 2,2 km/h (1 Bft) S-SW 202 11,8 C 16,9 C
23.07.2012 08:41 16,9 C 72 % 1030,5 hPa 0,0 l/m 1,4 km/h (1 Bft) S-SO 157 11,8 C 16,9 C
23.07.2012 08:46 17,1 C 72 % 1030,5 hPa 0,0 l/m 0,0 km/h (0 Bft) S-SO 157 12,0 C 17,1 C
23.07.2012 08:51 17,4 C 72 % 1030,6 hPa 0,0 l/m 2,9 km/h (1 Bft) S-SO 157 12,3 C 17,4 C
23.07.2012 08:56 17,4 C 71 % 1030,6 hPa 0,0 l/m 0,0 km/h (0 Bft) S 180 12,1 C 17,4 C
23.07.2012 09:01 17,8 C 71 % 1030,5 hPa 0,0 l/m 2,9 km/h (1 Bft) S-SO 157 12,5 C 17,8 C
23.07.2012 09:06 17,9 C 70 % 1030,5 hPa 0,0 l/m 2,2 km/h (1 Bft) SO 135 12,3 C 17,9 C
23.07.2012 09:11 18,3 C 69 % 1030,5 hPa 0,0 l/m 0,0 km/h (0 Bft) SW 225 12,5 C 18,3 C
23.07.2012 09:16 18,7 C 69 % 1030,5 hPa 0,0 l/m 2,5 km/h (1 Bft) SW 225 12,9 C 18,7 C
23.07.2012 09:21 19,2 C 66 % 1030,4 hPa 0,0 l/m 5,0 km/h (1 Bft) S-SW 202 12,7 C 19,2 C
23.07.2012 09:26 19,7 C 64 % 1030,4 hPa 0,0 l/m 4,3 km/h (1 Bft) S 180 12,7 C 19,7 C
23.07.2012 09:31 20,1 C 61 % 1030,3 hPa 0,0 l/m 7,9 km/h (2 Bft) S-SW 202 12,3 C 20,1 C
23.07.2012 09:36 20,4 C 59 % 1030,3 hPa 0,0 l/m 11,5 km/h (2 Bft) S 180 12,1 C 20,4 C
23.07.2012 09:41 20,7 C 57 % 1030,3 hPa 0,0 l/m 9,4 km/h (2 Bft) S 180 11,9 C 20,7 C
23.07.2012 09:46 21,0 C 58 % 1030,3 hPa 0,0 l/m 5,0 km/h (1 Bft) W-SW 247 12,4 C 21,0 C
23.07.2012 09:51 21,3 C 57 % 1030,2 hPa 0,0 l/m 4,7 km/h (1 Bft) SW 225 12,4 C 21,3 C
23.07.2012 09:56 21,4 C 56 % 1030,1 hPa 0,0 l/m 6,1 km/h (2 Bft) W-SW 247 12,3 C 21,4 C
23.07.2012 10:01 21,7 C 55 % 1030,0 hPa 0,0 l/m 2,2 km/h (1 Bft) W-SW 247 12,3 C 21,7 C
23.07.2012 10:06 21,8 C 54 % 1030,1 hPa 0,0 l/m 7,9 km/h (2 Bft) S-SW 202 12,1 C 21,8 C
23.07.2012 10:11 21,6 C 52 % 1029,9 hPa 0,0 l/m 5,4 km/h (1 Bft) S-SW 202 11,3 C 21,6 C
23.07.2012 10:16 21,8 C 52 % 1030,0 hPa 0,0 l/m 11,2 km/h (2 Bft) S-SO 157 11,5 C 21,8 C
23.07.2012 10:21 22,1 C 52 % 1030,0 hPa 0,0 l/m 18,7 km/h (3 Bft) S 180 11,8 C 22,1 C
23.07.2012 10:26 22,1 C 48 % 1030,1 hPa 0,0 l/m 12,6 km/h (3 Bft) S-SW 202 10,6 C 22,1 C
23.07.2012 10:31 22,1 C 47 % 1030,1 hPa 0,0 l/m 11,5 km/h (2 Bft) W-SW 247 10,3 C 22,1 C
23.07.2012 10:36 22,2 C 47 % 1030,1 hPa 0,0 l/m 6,1 km/h (2 Bft) SW 225 10,3 C 22,2 C
23.07.2012 10:41 22,2 C 46 % 1030,1 hPa 0,0 l/m 19,1 km/h (3 Bft) SW 225 10,0 C 22,2 C
23.07.2012 10:46 22,4 C 46 % 1030,0 hPa 0,0 l/m 10,4 km/h (2 Bft) S 180 10,2 C 22,4 C
23.07.2012 10:51 22,6 C 45 % 1030,0 hPa 0,0 l/m 7,2 km/h (2 Bft) W-SW 247 10,1 C 22,6 C
23.07.2012 10:56 22,8 C 44 % 1029,9 hPa 0,0 l/m 13,0 km/h (3 Bft) S-SW 202 9,9 C 22,8 C
23.07.2012 11:01 22,9 C 44 % 1029,9 hPa 0,0 l/m 6,8 km/h (2 Bft) W-SW 247 10,0 C 22,9 C
23.07.2012 11:06 23,1 C 44 % 1029,8 hPa 0,0 l/m 16,9 km/h (3 Bft) SW 225 10,2 C 23,1 C
23.07.2012 11:11 22,9 C 42 % 1029,8 hPa 0,0 l/m 7,6 km/h (2 Bft) SW 225 9,3 C 22,9 C
23.07.2012 11:16 22,9 C 42 % 1029,9 hPa 0,0 l/m 17,6 km/h (3 Bft) S-SO 157 9,3 C 22,9 C
23.07.2012 11:21 23,3 C 41 % 1029,8 hPa 0,0 l/m 5,4 km/h (1 Bft) S-SW 202 9,3 C 23,3 C
23.07.2012 11:26 23,6 C 40 % 1030,0 hPa 0,0 l/m 11,9 km/h (2 Bft) S-SO 157 9,2 C 23,6 C
23.07.2012 11:31 23,6 C 41 % 1029,8 hPa 0,0 l/m 6,8 km/h (2 Bft) S-SW 202 9,6 C 23,6 C
23.07.2012 11:36 23,6 C 41 % 1029,9 hPa 0,0 l/m 9,0 km/h (2 Bft) W-SW 247 9,6 C 23,6 C
23.07.2012 11:41 22,9 C 39 % 1029,8 hPa 0,0 l/m 5,8 km/h (2 Bft) S-SW 202 8,2 C 22,9 C
23.07.2012 11:46 22,8 C 41 % 1029,8 hPa 0,0 l/m 7,2 km/h (2 Bft) S 180 8,9 C 22,8 C
23.07.2012 11:51 23,3 C 40 % 1029,7 hPa 0,0 l/m 8,3 km/h (2 Bft) S-SW 202 8,9 C 23,3 C
23.07.2012 11:56 23,4 C 41 % 1029,7 hPa 0,0 l/m 16,9 km/h (3 Bft) SW 225 9,4 C 23,4 C
23.07.2012 12:01 23,6 C 40 % 1029,6 hPa 0,0 l/m 6,1 km/h (2 Bft) SW 225 9,2 C 23,6 C
23.07.2012 12:06 23,9 C 39 % 1029,5 hPa 0,0 l/m 12,6 km/h (3 Bft) W-SW 247 9,1 C 23,9 C
23.07.2012 12:11 24,1 C 39 % 1029,5 hPa 0,0 l/m 4,3 km/h (1 Bft) S-SW 202 9,3 C 24,1 C
23.07.2012 12:16 24,2 C 39 % 1029,5 hPa 0,0 l/m 6,5 km/h (2 Bft) SW 225 9,4 C 24,2 C
23.07.2012 12:21 24,3 C 38 % 1029,5 hPa 0,0 l/m 20,2 km/h (4 Bft) S-SW 202 9,1 C 24,3 C
23.07.2012 12:26 24,4 C 38 % 1029,4 hPa 0,0 l/m 22,7 km/h (4 Bft) S 180 9,2 C 24,4 C
23.07.2012 12:31 24,3 C 37 % 1029,5 hPa 0,0 l/m 6,5 km/h (2 Bft) SO 135 8,7 C 24,3 C
23.07.2012 12:36 24,6 C 38 % 1029,4 hPa 0,0 l/m 12,6 km/h (3 Bft) S-SW 202 9,3 C 24,6 C
23.07.2012 12:41 24,9 C 38 % 1029,3 hPa 0,0 l/m 17,6 km/h (3 Bft) W-SW 247 9,6 C 24,9 C
23.07.2012 12:46 24,9 C 38 % 1029,2 hPa 0,0 l/m 13,0 km/h (3 Bft) W 270 9,6 C 24,9 C
23.07.2012 12:51 24,9 C 37 % 1029,2 hPa 0,0 l/m 4,0 km/h (1 Bft) SO 135 9,2 C 24,9 C
23.07.2012 12:56 25,1 C 36 % 1029,1 hPa 0,0 l/m 16,2 km/h (3 Bft) SW 225 9,0 C 25,1 C
23.07.2012 13:01 24,9 C 36 % 1029,1 hPa 0,0 l/m 7,9 km/h (2 Bft) S 180 8,8 C 24,9 C
23.07.2012 13:06 25,3 C 36 % 1029,1 hPa 0,0 l/m 6,8 km/h (2 Bft) SW 225 9,1 C 25,3 C
23.07.2012 13:11 25,4 C 36 % 1029,0 hPa 0,0 l/m 4,3 km/h (1 Bft) S-SW 202 9,2 C 25,4 C
23.07.2012 13:16 25,6 C 36 % 1029,0 hPa 0,0 l/m 4,7 km/h (1 Bft) S-SO 157 9,4 C 25,6 C
23.07.2012 13:21 25,8 C 36 % 1029,0 hPa 0,0 l/m 7,6 km/h (2 Bft) S 180 9,6 C 25,8 C
23.07.2012 13:26 25,4 C 35 % 1028,8 hPa 0,0 l/m 3,6 km/h (1 Bft) S-SO 157 8,8 C 25,4 C
23.07.2012 13:31 25,4 C 36 % 1028,8 hPa 0,0 l/m 14,4 km/h (3 Bft) S-SW 202 9,2 C 25,4 C
23.07.2012 13:36 25,6 C 36 % 1028,7 hPa 0,0 l/m 9,0 km/h (2 Bft) SW 225 9,4 C 25,6 C
23.07.2012 13:41 25,8 C 35 % 1028,6 hPa 0,0 l/m 10,1 km/h (2 Bft) S-SW 202 9,2 C 25,8 C
23.07.2012 13:46 25,9 C 35 % 1028,5 hPa 0,0 l/m 9,7 km/h (2 Bft) S-SO 157 9,3 C 25,9 C
23.07.2012 13:51 26,1 C 35 % 1028,7 hPa 0,0 l/m 7,6 km/h (2 Bft) SW 225 9,4 C 26,1 C
23.07.2012 13:56 26,1 C 35 % 1028,6 hPa 0,0 l/m 7,9 km/h (2 Bft) S 180 9,4 C 26,1 C
23.07.2012 14:01 26,5 C 35 % 1028,6 hPa 0,0 l/m 1,8 km/h (1 Bft) N-NW 337 9,8 C 26,5 C
23.07.2012 14:06 26,3 C 35 % 1028,5 hPa 0,0 l/m 5,4 km/h (1 Bft) S-SO 157 9,6 C 26,3 C
23.07.2012 14:11 26,3 C 35 % 1028,5 hPa 0,0 l/m 6,8 km/h (2 Bft) S-SO 157 9,6 C 26,3 C
23.07.2012 14:16 26,2 C 35 % 1028,3 hPa 0,0 l/m 17,3 km/h (3 Bft) S-SO 157 9,5 C 26,2 C
23.07.2012 14:21 26,4 C 35 % 1028,3 hPa 0,0 l/m 7,6 km/h (2 Bft) S-SO 157 9,7 C 26,4 C
23.07.2012 14:26 26,7 C 35 % 1028,3 hPa 0,0 l/m 7,6 km/h (2 Bft) SW 225 10,0 C 26,7 C
23.07.2012 14:31 26,9 C 34 % 1028,0 hPa 0,0 l/m 4,7 km/h (1 Bft) S-SO 157 9,7 C 26,9 C
23.07.2012 14:36 26,9 C 35 % 1028,1 hPa 0,0 l/m 13,7 km/h (3 Bft) S-SW 202 10,1 C 26,9 C
23.07.2012 14:41 26,9 C 34 % 1028,1 hPa 0,0 l/m 5,0 km/h (1 Bft) S-SW 202 9,7 C 26,9 C
23.07.2012 14:46 27,2 C 35 % 1028,0 hPa 0,0 l/m 6,8 km/h (2 Bft) S-SO 157 10,4 C 27,2 C
23.07.2012 14:51 27,1 C 34 % 1027,9 hPa 0,0 l/m 2,9 km/h (1 Bft) SO 135 9,9 C 27,1 C
23.07.2012 14:56 27,0 C 34 % 1027,9 hPa 0,0 l/m 8,3 km/h (2 Bft) SO 135 9,8 C 27,0 C
23.07.2012 15:01 27,3 C 33 % 1027,9 hPa 0,0 l/m 4,0 km/h (1 Bft) SW 225 9,6 C 27,3 C
23.07.2012 15:06 27,2 C 33 % 1027,8 hPa 0,0 l/m 13,0 km/h (3 Bft) S 180 9,5 C 27,2 C
23.07.2012 15:11 27,1 C 34 % 1027,8 hPa 0,0 l/m 7,2 km/h (2 Bft) S-SO 157 9,9 C 27,1 C
23.07.2012 15:16 27,3 C 34 % 1027,9 hPa 0,0 l/m 6,1 km/h (2 Bft) S 180 10,0 C 27,3 C
23.07.2012 15:21 27,3 C 34 % 1027,9 hPa 0,0 l/m 9,7 km/h (2 Bft) S 180 10,0 C 27,3 C
23.07.2012 15:26 27,4 C 34 % 1027,7 hPa 0,0 l/m 8,3 km/h (2 Bft) S 180 10,1 C 27,4 C
23.07.2012 15:31 27,8 C 33 % 1027,8 hPa 0,0 l/m 8,6 km/h (2 Bft) S-SO 157 10,0 C 27,8 C
23.07.2012 15:36 27,8 C 31 % 1027,8 hPa 0,0 l/m 4,3 km/h (1 Bft) S 180 9,1 C 27,8 C
23.07.2012 15:41 27,6 C 31 % 1027,7 hPa 0,0 l/m 14,8 km/h (3 Bft) SO 135 8,9 C 27,6 C
23.07.2012 15:46 27,8 C 33 % 1027,7 hPa 0,0 l/m 8,6 km/h (2 Bft) S-SW 202 10,0 C 27,8 C
23.07.2012 15:51 27,7 C 31 % 1027,6 hPa 0,0 l/m 7,2 km/h (2 Bft) S-SO 157 9,0 C 27,7 C
23.07.2012 15:56 27,6 C 33 % 1027,8 hPa 0,0 l/m 8,6 km/h (2 Bft) S-SW 202 9,9 C 27,6 C
23.07.2012 16:01 27,6 C 33 % 1027,6 hPa 0,0 l/m 10,4 km/h (2 Bft) S-SW 202 9,9 C 27,6 C
23.07.2012 16:06 27,6 C 32 % 1027,5 hPa 0,0 l/m 13,3 km/h (3 Bft) S 180 9,4 C 27,6 C
23.07.2012 16:11 27,6 C 31 % 1027,6 hPa 0,0 l/m 2,9 km/h (1 Bft) S-SW 202 8,9 C 27,6 C
23.07.2012 16:16 27,7 C 30 % 1027,5 hPa 0,0 l/m 2,5 km/h (1 Bft) S-SO 157 8,5 C 27,7 C
23.07.2012 16:21 27,9 C 31 % 1027,5 hPa 0,0 l/m 5,0 km/h (1 Bft) S-SW 202 9,2 C 27,9 C
23.07.2012 16:26 27,8 C 31 % 1027,4 hPa 0,0 l/m 7,6 km/h (2 Bft) S-SW 202 9,1 C 27,8 C
23.07.2012 16:31 27,9 C 32 % 1027,3 hPa 0,0 l/m 4,7 km/h (1 Bft) SO 135 9,7 C 27,9 C
23.07.2012 16:36 27,9 C 30 % 1027,2 hPa 0,0 l/m 5,8 km/h (2 Bft) S 180 8,7 C 27,9 C
23.07.2012 16:41 27,9 C 31 % 1027,2 hPa 0,0 l/m 4,7 km/h (1 Bft) S-SO 157 9,2 C 27,9 C
23.07.2012 16:46 27,8 C 30 % 1027,1 hPa 0,0 l/m 8,3 km/h (2 Bft) S-SO 157 8,6 C 27,8 C
23.07.2012 16:51 27,9 C 32 % 1027,1 hPa 0,0 l/m 11,2 km/h (2 Bft) S-SO 157 9,7 C 27,9 C
23.07.2012 16:56 27,8 C 31 % 1027,2 hPa 0,0 l/m 11,2 km/h (2 Bft) S-SO 157 9,1 C 27,8 C
23.07.2012 17:01 27,9 C 31 % 1027,0 hPa 0,0 l/m 6,5 km/h (2 Bft) S-SO 157 9,2 C 27,9 C
23.07.2012 17:06 27,8 C 31 % 1027,0 hPa 0,0 l/m 10,1 km/h (2 Bft) W-SW 247 9,1 C 27,8 C
23.07.2012 17:11 27,9 C 31 % 1027,0 hPa 0,0 l/m 3,6 km/h (1 Bft) S-SW 202 9,2 C 27,9 C
23.07.2012 17:16 27,9 C 31 % 1026,9 hPa 0,0 l/m 4,0 km/h (1 Bft) O-SO 112 9,2 C 27,9 C
23.07.2012 17:21 27,9 C 31 % 1026,8 hPa 0,0 l/m 10,8 km/h (2 Bft) S-SW 202 9,2 C 27,9 C
23.07.2012 17:26 27,8 C 32 % 1026,9 hPa 0,0 l/m 9,4 km/h (2 Bft) S-SW 202 9,6 C 27,8 C
23.07.2012 17:31 27,8 C 32 % 1026,8 hPa 0,0 l/m 5,8 km/h (2 Bft) S-SW 202 9,6 C 27,8 C
23.07.2012 17:36 27,8 C 33 % 1026,8 hPa 0,0 l/m 9,7 km/h (2 Bft) S-SO 157 10,0 C 27,8 C
23.07.2012 17:41 27,8 C 33 % 1026,7 hPa 0,0 l/m 10,4 km/h (2 Bft) S-SW 202 10,0 C 27,8 C
23.07.2012 17:46 27,6 C 33 % 1026,7 hPa 0,0 l/m 5,4 km/h (1 Bft) W-SW 247 9,9 C 27,6 C
23.07.2012 17:51 27,8 C 32 % 1026,6 hPa 0,0 l/m 6,5 km/h (2 Bft) S-SO 157 9,6 C 27,8 C
23.07.2012 17:56 27,6 C 31 % 1026,7 hPa 0,0 l/m 6,1 km/h (2 Bft) SO 135 8,9 C 27,6 C
23.07.2012 18:01 27,5 C 32 % 1026,6 hPa 0,0 l/m 7,2 km/h (2 Bft) S-SO 157 9,3 C 27,5 C
23.07.2012 18:06 27,9 C 33 % 1026,5 hPa 0,0 l/m 5,4 km/h (1 Bft) S 180 10,1 C 27,9 C
23.07.2012 18:11 28,3 C 31 % 1026,4 hPa 0,0 l/m 2,5 km/h (1 Bft) SO 135 9,5 C 28,3 C
23.07.2012 18:16 28,4 C 31 % 1026,4 hPa 0,0 l/m 6,5 km/h (2 Bft) S-SW 202 9,6 C 28,4 C
23.07.2012 18:21 28,2 C 31 % 1026,3 hPa 0,0 l/m 9,7 km/h (2 Bft) S-SW 202 9,4 C 28,2 C
23.07.2012 18:26 28,1 C 31 % 1026,3 hPa 0,0 l/m 5,8 km/h (2 Bft) S 180 9,4 C 28,1 C
23.07.2012 18:31 27,9 C 31 % 1026,3 hPa 0,0 l/m 7,6 km/h (2 Bft) S-SW 202 9,2 C 27,9 C
23.07.2012 18:36 27,6 C 31 % 1026,3 hPa 0,0 l/m 0,0 km/h (0 Bft) S-SW 202 8,9 C 27,6 C
23.07.2012 18:41 27,6 C 31 % 1026,2 hPa 0,0 l/m 4,0 km/h (1 Bft) SO 135 8,9 C 27,6 C
23.07.2012 18:46 27,7 C 33 % 1026,3 hPa 0,0 l/m 6,5 km/h (2 Bft) S-SW 202 9,9 C 27,7 C
23.07.2012 18:51 27,6 C 32 % 1026,3 hPa 0,0 l/m 4,7 km/h (1 Bft) S 180 9,4 C 27,6 C
23.07.2012 18:56 27,4 C 33 % 1026,2 hPa 0,0 l/m 2,2 km/h (1 Bft) S-SO 157 9,7 C 27,4 C
23.07.2012 19:01 27,4 C 32 % 1026,2 hPa 0,0 l/m 4,3 km/h (1 Bft) S-SW 202 9,2 C 27,4 C
23.07.2012 19:06 27,3 C 32 % 1026,2 hPa 0,0 l/m 6,8 km/h (2 Bft) S 180 9,1 C 27,3 C
23.07.2012 19:11 27,2 C 33 % 1026,1 hPa 0,0 l/m 4,7 km/h (1 Bft) S-SO 157 9,5 C 27,2 C
23.07.2012 19:16 27,2 C 34 % 1026,1 hPa 0,0 l/m 4,3 km/h (1 Bft) S-SW 202 10,0 C 27,2 C
23.07.2012 19:21 27,1 C 34 % 1026,1 hPa 0,0 l/m 0,0 km/h (0 Bft) S-SW 202 9,9 C 27,1 C
23.07.2012 19:26 26,9 C 34 % 1026,1 hPa 0,0 l/m 2,2 km/h (1 Bft) S-SW 202 9,7 C 26,9 C
23.07.2012 19:31 26,9 C 34 % 1026,1 hPa 0,0 l/m 5,0 km/h (1 Bft) S-SW 202 9,7 C 26,9 C
23.07.2012 19:36 26,8 C 35 % 1026,0 hPa 0,0 l/m 7,6 km/h (2 Bft) S 180 10,0 C 26,8 C
23.07.2012 19:41 26,7 C 35 % 1025,8 hPa 0,0 l/m 3,2 km/h (1 Bft) S-SO 157 10,0 C 26,7 C
23.07.2012 19:46 26,5 C 35 % 1025,9 hPa 0,0 l/m 4,0 km/h (1 Bft) S-SO 157 9,8 C 26,5 C
23.07.2012 19:51 26,4 C 35 % 1025,8 hPa 0,0 l/m 3,6 km/h (1 Bft) S 180 9,7 C 26,4 C
23.07.2012 19:56 26,3 C 35 % 1025,8 hPa 0,0 l/m 6,1 km/h (2 Bft) S 180 9,6 C 26,3 C
23.07.2012 20:01 26,1 C 36 % 1025,8 hPa 0,0 l/m 2,5 km/h (1 Bft) S-SO 157 9,8 C 26,1 C
23.07.2012 20:06 25,9 C 36 % 1025,8 hPa 0,0 l/m 3,2 km/h (1 Bft) S-SO 157 9,7 C 25,9 C
23.07.2012 20:11 25,9 C 36 % 1025,8 hPa 0,0 l/m 0,0 km/h (0 Bft) S-SO 157 9,7 C 25,9 C
23.07.2012 20:16 25,9 C 36 % 1025,8 hPa 0,0 l/m 1,8 km/h (1 Bft) S-SO 157 9,7 C 25,9 C
23.07.2012 20:21 25,9 C 36 % 1025,8 hPa 0,0 l/m 3,2 km/h (1 Bft) S-SO 157 9,7 C 25,9 C
23.07.2012 20:26 25,6 C 36 % 1025,8 hPa 0,0 l/m 0,0 km/h (0 Bft) S-SO 157 9,4 C 25,6 C
23.07.2012 20:31 25,1 C 36 % 1025,8 hPa 0,0 l/m 0,0 km/h (0 Bft) S-SO 157 9,0 C 25,1 C
23.07.2012 20:36 24,6 C 37 % 1025,8 hPa 0,0 l/m 1,1 km/h (1 Bft) S-SO 157 8,9 C 24,6 C
23.07.2012 20:41 24,3 C 38 % 1025,8 hPa 0,0 l/m 0,0 km/h (0 Bft) S-SO 157 9,1 C 24,3 C
23.07.2012 20:46 23,9 C 39 % 1025,9 hPa 0,0 l/m 0,0 km/h (0 Bft) S-SO 157 9,1 C 23,9 C
23.07.2012 20:51 23,5 C 39 % 1025,8 hPa 0,0 l/m 1,1 km/h (1 Bft) S-SO 157 8,7 C 23,5 C
23.07.2012 20:56 23,3 C 40 % 1025,8 hPa 0,0 l/m 0,0 km/h (0 Bft) SO 135 8,9 C 23,3 C
23.07.2012 21:01 22,9 C 41 % 1025,8 hPa 0,0 l/m 0,0 km/h (0 Bft) SO 135 8,9 C 22,9 C
23.07.2012 21:06 22,8 C 42 % 1025,8 hPa 0,0 l/m 0,0 km/h (0 Bft) SO 135 9,2 C 22,8 C
23.07.2012 21:11 22,4 C 43 % 1025,9 hPa 0,0 l/m 2,2 km/h (1 Bft) SO 135 9,2 C 22,4 C
23.07.2012 21:16 22,2 C 44 % 1026,0 hPa 0,0 l/m 0,0 km/h (0 Bft) SO 135 9,4 C 22,2 C
23.07.2012 21:21 21,9 C 44 % 1026,0 hPa 0,0 l/m 0,0 km/h (0 Bft) SO 135 9,1 C 21,9 C
23.07.2012 21:26 21,8 C 45 % 1025,9 hPa 0,0 l/m 0,0 km/h (0 Bft) SO 135 9,3 C 21,8 C
23.07.2012 21:31 21,4 C 45 % 1025,9 hPa 0,0 l/m 0,0 km/h (0 Bft) SO 135 9,0 C 21,4 C
23.07.2012 21:36 21,3 C 46 % 1025,8 hPa 0,0 l/m 0,0 km/h (0 Bft) SO 135 9,2 C 21,3 C
23.07.2012 21:41 21,0 C 47 % 1026,0 hPa 0,0 l/m 0,0 km/h (0 Bft) SO 135 9,3 C 21,0 C
23.07.2012 21:46 20,8 C 48 % 1026,0 hPa 0,0 l/m 0,0 km/h (0 Bft) SO 135 9,4 C 20,8 C
23.07.2012 21:51 20,6 C 48 % 1026,1 hPa 0,0 l/m 0,0 km/h (0 Bft) SO 135 9,2 C 20,6 C
23.07.2012 21:56 20,4 C 49 % 1026,0 hPa 0,0 l/m 0,0 km/h (0 Bft) SO 135 9,3 C 20,4 C
23.07.2012 22:01 20,2 C 50 % 1025,9 hPa 0,0 l/m 0,0 km/h (0 Bft) SO 135 9,4 C 20,2 C
23.07.2012 22:06 20,0 C 50 % 1026,1 hPa 0,0 l/m 0,0 km/h (0 Bft) SO 135 9,3 C 20,0 C
23.07.2012 22:11 19,9 C 51 % 1026,0 hPa 0,0 l/m 0,0 km/h (0 Bft) SO 135 9,5 C 19,9 C
23.07.2012 22:16 19,6 C 51 % 1026,0 hPa 0,0 l/m 2,5 km/h (1 Bft) SO 135 9,2 C 19,6 C
23.07.2012 22:21 19,5 C 52 % 1025,9 hPa 0,0 l/m 0,0 km/h (0 Bft) SO 135 9,4 C 19,5 C
23.07.2012 22:26 19,3 C 53 % 1025,9 hPa 0,0 l/m 1,4 km/h (1 Bft) O-SO 112 9,5 C 19,3 C
23.07.2012 22:31 19,1 C 54 % 1026,0 hPa 0,0 l/m 3,2 km/h (1 Bft) O-SO 112 9,6 C 19,1 C
23.07.2012 22:36 18,9 C 54 % 1025,8 hPa 0,0 l/m 0,0 km/h (0 Bft) O-SO 112 9,4 C 18,9 C
23.07.2012 22:41 18,9 C 55 % 1025,9 hPa 0,0 l/m 2,9 km/h (1 Bft) O-SO 112 9,7 C 18,9 C
23.07.2012 22:46 18,7 C 55 % 1025,8 hPa 0,0 l/m 1,4 km/h (1 Bft) SO 135 9,5 C 18,7 C
23.07.2012 22:51 18,6 C 56 % 1025,9 hPa 0,0 l/m 2,2 km/h (1 Bft) SO 135 9,6 C 18,6 C
23.07.2012 22:56 18,4 C 56 % 1025,8 hPa 0,0 l/m 0,0 km/h (0 Bft) SO 135 9,5 C 18,4 C
23.07.2012 23:01 18,3 C 57 % 1025,9 hPa 0,0 l/m 0,0 km/h (0 Bft) SO 135 9,6 C 18,3 C
23.07.2012 23:06 18,2 C 57 % 1025,9 hPa 0,0 l/m 2,2 km/h (1 Bft) SO 135 9,5 C 18,2 C
23.07.2012 23:11 18,1 C 57 % 1025,8 hPa 0,0 l/m 1,8 km/h (1 Bft) SO 135 9,4 C 18,1 C
23.07.2012 23:16 18,1 C 57 % 1025,7 hPa 0,0 l/m 0,0 km/h (0 Bft) O-SO 112 9,4 C 18,1 C
23.07.2012 23:21 17,9 C 58 % 1025,9 hPa 0,0 l/m 0,0 km/h (0 Bft) O-SO 112 9,5 C 17,9 C
23.07.2012 23:26 17,9 C 58 % 1026,0 hPa 0,0 l/m 0,0 km/h (0 Bft) SO 135 9,5 C 17,9 C
23.07.2012 23:31 17,8 C 58 % 1026,0 hPa 0,0 l/m 0,0 km/h (0 Bft) SO 135 9,4 C 17,8 C
23.07.2012 23:36 17,7 C 58 % 1025,9 hPa 0,0 l/m 0,0 km/h (0 Bft) SO 135 9,3 C 17,7 C
23.07.2012 23:41 17,6 C 59 % 1026,0 hPa 0,0 l/m 1,4 km/h (1 Bft) SO 135 9,5 C 17,6 C
23.07.2012 23:46 17,5 C 59 % 1025,9 hPa 0,0 l/m 2,9 km/h (1 Bft) SO 135 9,4 C 17,5 C
23.07.2012 23:51 17,4 C 60 % 1025,8 hPa 0,0 l/m 1,1 km/h (1 Bft) O-SO 112 9,6 C 17,4 C
23.07.2012 23:56 17,3 C 60 % 1025,8 hPa 0,0 l/m 0,0 km/h (0 Bft) O-SO 112 9,5 C 17,3 C
_ Min-Zeit 05:26 16:16 23:16 - 00:01 - - 11:41 05:26
Minimum _ 11,2 C 30 % 1025,7 hPa - 0,0 km/h (0 Bft) - - 8,2 C 11,2 C
_ Max-Zeit 18:16 05:06 08:51 00:01 12:26 - - 09:16 18:16
Maximum _ 28,4 C 83 % 1030,6 hPa 0,0 l/m 22,7 km/h
S (4 Bft)
- - 12,9 C 28,4 C
Durchschnitt _ 20,1 C 56 % 1028,5 hPa #0,0 l/m 4,4 km/h (1 Bft) S-SO - 9,7 C 20,1 C
(c) by David Heller